Time,TemperatureF,DewpointF,PressureIn,WindDirection,WindDirectionDegrees,WindSpeedMPH,WindSpeedGustMPH,Humidity,HourlyPrecipIn,Conditions,Clouds,dailyrainin,SoftwareType,DateUTC
2013-02-19 00:00:00,31.6,27.9,29.65,WNW,288,15.9,24.2,86,0.01,RA,,0.00,WeatherDisplay:10.37,2013-02-19 06:00:00,
2013-02-19 00:06:00,31.3,27.6,29.66,South,189,16.6,18.4,86,0.02,RA,,0.01,WeatherDisplay:10.37,2013-02-19 06:06:00,
2013-02-19 00:11:00,31.0,27.3,29.66,WNW,297,10.7,23.0,86,0.01,RA,,0.01,WeatherDisplay:10.37,2013-02-19 06:11:00,
2013-02-19 00:16:00,30.9,26.9,29.66,WNW,283,17.5,28.8,85,0.01,OVC,,0.01,WeatherDisplay:10.37,2013-02-19 06:16:00,
2013-02-19 00:21:00,30.7,26.7,29.67,West,268,18.7,31.5,85,0.01,OVC,,0.01,WeatherDisplay:10.37,2013-02-19 06:21:00,
2013-02-19 00:26:00,30.4,26.1,29.67,West,268,15.1,16.1,84,0.01,OVC,,0.01,WeatherDisplay:10.37,2013-02-19 06:26:00,
2013-02-19 00:31:00,30.4,26.1,29.67,West,269,12.0,19.6,84,0.01,OVC,,0.01,WeatherDisplay:10.37,2013-02-19 06:31:00,
2013-02-19 00:36:00,30.4,26.1,29.68,WSW,240,21.4,29.9,84,0.01,OVC,,0.01,WeatherDisplay:10.37,2013-02-19 06:36:00,
2013-02-19 00:41:00,30.1,25.8,29.68,WSW,242,16.3,20.7,84,0.01,OVC,,0.01,WeatherDisplay:10.37,2013-02-19 06:41:00,
2013-02-19 00:46:00,29.8,25.3,29.68,West,275,12.4,22.5,83,0.01,OVC,,0.01,WeatherDisplay:10.37,2013-02-19 06:46:00,
2013-02-19 00:51:00,29.4,24.6,29.69,SSW,207,19.5,20.7,82,0.01,OVC,,0.01,WeatherDisplay:10.37,2013-02-19 06:51:00,
2013-02-19 00:56:00,29.1,24.3,29.70,SW,214,25.9,29.9,82,0.01,OVC,,0.01,WeatherDisplay:10.37,2013-02-19 06:56:00,
2013-02-19 01:01:00,28.7,23.6,29.70,West,259,13.6,31.1,81,0.01,OVC,,0.01,WeatherDisplay:10.37,2013-02-19 07:01:00,
2013-02-19 01:06:00,28.4,22.7,29.71,WSW,253,21.3,40.3,79,0.00,OVC,,0.01,WeatherDisplay:10.37,2013-02-19 07:06:00,
2013-02-19 01:11:00,28.4,22.7,29.72,WNW,300,9.1,9.2,79,0.00,OVC,,0.01,WeatherDisplay:10.37,2013-02-19 07:11:00,
2013-02-19 01:16:00,28.4,23.0,29.72,West,266,17.3,29.9,80,0.00,OVC,,0.01,WeatherDisplay:10.37,2013-02-19 07:16:00,
2013-02-19 01:21:00,28.4,22.7,29.72,SW,226,28.7,29.9,79,0.00,OVC,,0.01,WeatherDisplay:10.37,2013-02-19 07:21:00,
2013-02-19 01:26:00,27.9,21.6,29.73,WSW,243,15.7,24.2,77,0.00,OVC,,0.01,WeatherDisplay:10.37,2013-02-19 07:26:00,
2013-02-19 01:31:00,27.9,21.6,29.73,WSW,237,26.3,26.5,77,0.00,OVC,,0.01,WeatherDisplay:10.37,2013-02-19 07:31:00,
2013-02-19 01:36:00,27.9,21.6,29.73,WNW,283,15.2,16.1,77,0.00,OVC,,0.01,WeatherDisplay:10.37,2013-02-19 07:36:00,
2013-02-19 01:41:00,27.8,20.9,29.73,West,270,18.2,28.8,75,0.00,OVC,,0.01,WeatherDisplay:10.37,2013-02-19 07:41:00,
2013-02-19 01:46:00,27.6,20.7,29.73,West,278,16.4,19.6,75,0.00,OVC,,0.01,WeatherDisplay:10.37,2013-02-19 07:46:00,
2013-02-19 01:51:00,27.5,20.6,29.73,WNW,301,16.3,31.1,75,0.00,OVC,,0.01,WeatherDisplay:10.37,2013-02-19 07:51:00,
2013-02-19 01:56:00,27.3,20.4,29.73,WNW,283,15.8,20.7,75,0.00,OVC,,0.01,WeatherDisplay:10.37,2013-02-19 07:56:00,
2013-02-19 02:01:00,27.3,20.7,29.74,West,277,14.9,19.6,76,0.00,OVC,,0.01,WeatherDisplay:10.37,2013-02-19 08:01:00,
2013-02-19 02:06:00,27.3,21.0,29.74,West,279,24.2,24.2,77,0.00,OVC,,0.01,WeatherDisplay:10.37,2013-02-19 08:06:00,
2013-02-19 02:11:00,27.5,21.2,29.74,WSW,241,20.3,33.4,77,0.00,OVC,,0.01,WeatherDisplay:10.37,2013-02-19 08:11:00,
2013-02-19 02:16:00,27.2,20.3,29.74,WSW,249,26.5,26.5,75,0.00,OVC,,0.01,WeatherDisplay:10.37,2013-02-19 08:16:00,
2013-02-19 02:21:00,27.0,19.2,29.74,WSW,250,18.7,28.8,72,0.00,OVC,,0.01,WeatherDisplay:10.37,2013-02-19 08:21:00,
2013-02-19 02:26:00,27.0,19.2,29.75,West,263,21.0,26.5,72,0.00,OVC,,0.01,WeatherDisplay:10.37,2013-02-19 08:26:00,
2013-02-19 02:31:00,27.0,18.8,29.75,West,281,20.6,25.3,71,0.00,OVC,,0.01,WeatherDisplay:10.37,2013-02-19 08:31:00,
2013-02-19 02:36:00,27.0,18.8,29.75,West,272,21.5,24.2,71,0.00,OVC,,0.01,WeatherDisplay:10.37,2013-02-19 08:36:00,
2013-02-19 02:41:00,26.9,18.7,29.75,WSW,244,26.2,26.5,71,0.00,OVC,,0.01,WeatherDisplay:10.37,2013-02-19 08:41:00,
2013-02-19 02:46:00,26.7,18.9,29.75,West,279,16.3,20.7,72,0.00,OVC,,0.01,WeatherDisplay:10.37,2013-02-19 08:46:00,
2013-02-19 02:51:00,26.7,19.2,29.75,West,277,18.8,26.5,73,0.00,OVC,,0.01,WeatherDisplay:10.37,2013-02-19 08:51:00,
2013-02-19 02:56:00,26.6,19.4,29.75,SSW,207,24.5,26.5,74,0.00,OVC,,0.01,WeatherDisplay:10.37,2013-02-19 08:56:00,
2013-02-19 03:01:00,26.6,19.4,29.75,West,276,18.6,28.8,74,0.00,OVC,,0.01,WeatherDisplay:10.37,2013-02-19 09:01:00,
2013-02-19 03:06:00,26.6,19.4,29.76,WSW,247,17.9,18.0,74,0.00,OVC,,0.01,WeatherDisplay:10.37,2013-02-19 09:06:00,
2013-02-19 03:11:00,26.6,19.1,29.76,West,261,19.8,28.8,73,0.00,OVC,,0.01,WeatherDisplay:10.37,2013-02-19 09:11:00,
2013-02-19 03:16:00,26.4,18.9,29.76,West,264,21.6,28.8,73,0.00,OVC,,0.01,WeatherDisplay:10.37,2013-02-19 09:16:00,
2013-02-19 03:21:00,26.4,19.2,29.75,WNW,302,12.6,33.4,74,0.00,OVC,,0.01,WeatherDisplay:10.37,2013-02-19 09:21:00,
2013-02-19 03:26:00,26.6,19.4,29.76,West,259,14.4,16.5,74,0.00,OVC,,0.01,WeatherDisplay:10.37,2013-02-19 09:26:00,
2013-02-19 03:31:00,26.6,19.7,29.76,WSW,245,12.9,12.9,75,0.00,OVC,,0.01,WeatherDisplay:10.37,2013-02-19 09:31:00,
2013-02-19 03:36:00,26.6,19.7,29.76,WSW,254,17.1,17.1,75,0.00,OVC,,0.01,WeatherDisplay:10.37,2013-02-19 09:36:00,
2013-02-19 03:41:00,26.6,20.1,29.76,SW,235,7.7,16.1,76,0.00,OVC,,0.01,WeatherDisplay:10.37,2013-02-19 09:41:00,
2013-02-19 03:46:00,26.4,19.5,29.76,WSW,254,12.3,25.3,75,0.00,OVC,,0.01,WeatherDisplay:10.37,2013-02-19 09:46:00,
2013-02-19 03:51:00,26.4,19.2,29.76,WSW,238,14.7,24.2,74,0.00,OVC,,0.01,WeatherDisplay:10.37,2013-02-19 09:51:00,
2013-02-19 03:56:00,26.3,18.8,29.77,WSW,258,15.3,29.9,73,0.00,OVC,,0.01,WeatherDisplay:10.37,2013-02-19 09:56:00,
2013-02-19 04:01:00,26.1,18.3,29.77,SW,234,19.7,25.3,72,0.00,OVC,,0.01,WeatherDisplay:10.37,2013-02-19 10:01:00,
2013-02-19 04:06:00,26.0,18.2,29.77,West,281,8.7,15.0,72,0.00,OVC,,0.01,WeatherDisplay:10.37,2013-02-19 10:06:00,
2013-02-19 04:11:00,25.6,17.8,29.77,SW,236,19.7,26.5,72,0.00,OVC,,0.01,WeatherDisplay:10.37,2013-02-19 10:11:00,
2013-02-19 04:16:00,25.3,17.5,29.77,SW,235,3.3,24.2,72,0.00,OVC,,0.01,WeatherDisplay:10.37,2013-02-19 10:16:00,
2013-02-19 04:21:00,25.1,17.7,29.78,WSW,243,18.8,20.7,73,0.00,OVC,,0.01,WeatherDisplay:10.37,2013-02-19 10:21:00,
2013-02-19 04:26:00,25.0,17.6,29.78,West,270,14.7,18.4,73,0.00,OVC,,0.01,WeatherDisplay:10.37,2013-02-19 10:26:00,
2013-02-19 04:31:00,25.0,17.9,29.79,West,275,12.9,25.3,74,0.00,OVC,,0.01,WeatherDisplay:10.37,2013-02-19 10:31:00,
2013-02-19 04:36:00,24.7,16.3,29.79,West,261,36.9,36.9,70,0.00,OVC,,0.01,WeatherDisplay:10.37,2013-02-19 10:36:00,
2013-02-19 04:41:00,24.4,15.7,29.79,WNW,302,13.3,24.0,69,0.00,OVC,,0.01,WeatherDisplay:10.37,2013-02-19 10:41:00,
2013-02-19 04:46:00,24.4,15.7,29.79,WSW,242,18.5,29.9,69,0.00,OVC,,0.01,WeatherDisplay:10.37,2013-02-19 10:46:00,
2013-02-19 04:51:00,24.1,15.4,29.80,WNW,287,13.2,20.7,69,0.00,OVC,,0.01,WeatherDisplay:10.37,2013-02-19 10:51:00,
2013-02-19 04:56:00,23.9,15.9,29.80,SW,235,23.0,23.0,71,0.00,OVC,,0.01,WeatherDisplay:10.37,2013-02-19 10:56:00,
2013-02-19 05:01:00,23.5,15.5,29.81,West,259,19.1,29.9,71,0.00,OVC,,0.01,WeatherDisplay:10.37,2013-02-19 11:01:00,
2013-02-19 05:06:00,23.3,15.3,29.81,West,270,13.5,16.1,71,0.00,OVC,,0.01,WeatherDisplay:10.37,2013-02-19 11:06:00,
2013-02-19 05:11:00,23.2,14.9,29.82,WNW,290,11.6,20.7,70,0.00,OVC,,0.01,WeatherDisplay:10.37,2013-02-19 11:11:00,
2013-02-19 05:16:00,23.2,15.2,29.82,WSW,254,9.5,20.7,71,0.00,OVC,,0.01,WeatherDisplay:10.37,2013-02-19 11:16:00,
2013-02-19 05:21:00,23.2,15.2,29.82,West,275,26.2,26.2,71,0.00,OVC,,0.01,WeatherDisplay:10.37,2013-02-19 11:21:00,
2013-02-19 05:26:00,23.2,15.2,29.82,WNW,284,20.4,25.3,71,0.00,OVC,,0.01,WeatherDisplay:10.37,2013-02-19 11:26:00,
2013-02-19 05:31:00,23.3,15.3,29.81,SW,236,18.7,20.7,71,0.00,-SN,,0.01,WeatherDisplay:10.37,2013-02-19 11:31:00,
2013-02-19 05:36:00,23.3,15.3,29.82,WSW,252,10.3,20.7,71,0.00,-SN,,0.01,WeatherDisplay:10.37,2013-02-19 11:36:00,
2013-02-19 05:41:00,23.5,15.5,29.82,WNW,288,5.6,15.0,71,0.00,-SN,,0.01,WeatherDisplay:10.37,2013-02-19 11:41:00,
2013-02-19 05:47:00,23.5,15.8,29.82,WSW,250,11.7,24.2,72,0.00,-SN,,0.01,WeatherDisplay:10.37,2013-02-19 11:47:00,
2013-02-19 05:52:00,23.3,15.9,29.82,West,279,13.8,15.0,73,0.00,-SN,,0.01,WeatherDisplay:10.37,2013-02-19 11:52:00,
2013-02-19 05:57:00,23.3,15.6,29.82,West,280,16.2,18.4,72,0.00,-SN,,0.01,WeatherDisplay:10.37,2013-02-19 11:57:00,
2013-02-19 06:02:00,23.3,15.3,29.82,WSW,258,14.3,16.1,71,0.00,-SN,,0.01,WeatherDisplay:10.37,2013-02-19 12:02:00,
2013-02-19 06:07:00,23.2,15.2,29.82,West,275,20.4,29.9,71,0.00,-SN,,0.01,WeatherDisplay:10.37,2013-02-19 12:07:00,
2013-02-19 06:12:00,22.9,14.9,29.82,West,269,14.3,19.6,71,0.00,OVC,,0.01,WeatherDisplay:10.37,2013-02-19 12:12:00,
2013-02-19 06:17:00,22.7,14.7,29.82,SSW,203,20.6,23.0,71,0.00,OVC,,0.01,WeatherDisplay:10.37,2013-02-19 12:17:00,
2013-02-19 06:22:00,22.5,14.5,29.83,WSW,256,25.2,34.5,71,0.00,OVC,,0.01,WeatherDisplay:10.37,2013-02-19 12:22:00,
2013-02-19 06:27:00,22.4,14.4,29.83,West,276,25.6,30.0,71,0.00,OVC,,0.01,WeatherDisplay:10.37,2013-02-19 12:27:00,
2013-02-19 06:32:00,22.4,14.7,29.84,SW,226,7.4,15.0,72,0.00,OVC,,0.01,WeatherDisplay:10.37,2013-02-19 12:32:00,
2013-02-19 06:37:00,22.2,14.5,29.84,West,266,21.3,21.3,72,0.00,OVC,,0.01,WeatherDisplay:10.37,2013-02-19 12:37:00,
2013-02-19 06:42:00,22.2,14.5,29.84,West,274,16.2,16.2,72,0.00,OVC,,0.01,WeatherDisplay:10.37,2013-02-19 12:42:00,
2013-02-19 06:47:00,22.2,14.9,29.84,WSW,257,14.2,24.2,73,0.00,OVC,,0.01,WeatherDisplay:10.37,2013-02-19 12:47:00,
2013-02-19 06:52:00,22.2,15.2,29.84,West,263,6.3,18.0,74,0.00,OVC,,0.01,WeatherDisplay:10.37,2013-02-19 12:52:00,
2013-02-19 06:57:00,21.9,14.6,29.85,WSW,256,24.8,25.3,73,0.00,OVC,,0.01,WeatherDisplay:10.37,2013-02-19 12:57:00,
2013-02-19 07:02:00,21.6,14.3,29.85,West,281,18.7,24.2,73,0.00,OVC,,0.01,WeatherDisplay:10.37,2013-02-19 13:02:00,
2013-02-19 07:07:00,21.4,14.1,29.85,West,269,16.3,19.6,73,0.00,OVC,,0.01,WeatherDisplay:10.37,2013-02-19 13:07:00,
2013-02-19 07:12:00,21.1,13.2,29.86,West,272,27.0,27.0,71,0.00,-SN,,0.01,WeatherDisplay:10.37,2013-02-19 13:12:00,
2013-02-19 07:17:00,21.0,13.1,29.86,WNW,296,27.7,35.7,71,0.00,-SN,,0.01,WeatherDisplay:10.37,2013-02-19 13:17:00,
2013-02-19 07:22:00,21.0,13.1,29.86,SW,236,17.6,33.4,71,0.00,-SN,,0.01,WeatherDisplay:10.37,2013-02-19 13:22:00,
2013-02-19 07:27:00,21.0,13.1,29.87,West,260,16.4,26.5,71,0.00,-SN,,0.01,WeatherDisplay:10.37,2013-02-19 13:27:00,
2013-02-19 07:32:00,21.0,13.1,29.86,West,273,13.2,24.2,71,0.00,-SN,,0.01,WeatherDisplay:10.37,2013-02-19 13:32:00,
2013-02-19 07:37:00,21.0,13.4,29.87,WSW,239,12.6,15.0,72,0.00,-SN,,0.01,WeatherDisplay:10.37,2013-02-19 13:37:00,
2013-02-19 07:42:00,21.0,13.1,29.87,WSW,248,25.5,25.5,71,0.00,-SN,,0.01,WeatherDisplay:10.37,2013-02-19 13:42:00,
2013-02-19 07:47:00,21.1,13.2,29.87,WNW,294,11.3,15.0,71,0.00,-SN,,0.01,WeatherDisplay:10.37,2013-02-19 13:47:00,
2013-02-19 07:52:00,21.3,13.4,29.87,WSW,252,18.0,20.7,71,0.00,-SN,,0.01,WeatherDisplay:10.37,2013-02-19 13:52:00,
2013-02-19 07:57:00,21.4,13.8,29.87,SW,226,15.6,18.4,72,0.00,-SN,,0.01,WeatherDisplay:10.37,2013-02-19 13:57:00,
2013-02-19 08:02:00,21.4,13.8,29.87,WSW,254,20.5,25.3,72,0.00,-SN,,0.01,WeatherDisplay:10.37,2013-02-19 14:02:00,
2013-02-19 08:07:00,21.6,14.3,29.87,WSW,248,20.6,25.3,73,0.00,-SN,,0.01,WeatherDisplay:10.37,2013-02-19 14:07:00,
2013-02-19 08:12:00,21.6,14.3,29.87,West,274,32.8,42.6,73,0.00,-SN,,0.01,WeatherDisplay:10.37,2013-02-19 14:12:00,
2013-02-19 08:17:00,21.6,14.6,29.87,WSW,254,12.4,21.0,74,0.00,-SN,,0.01,WeatherDisplay:10.37,2013-02-19 14:17:00,
2013-02-19 08:22:00,21.4,13.8,29.88,WSW,246,25.3,25.3,72,0.00,-SN,,0.01,WeatherDisplay:10.37,2013-02-19 14:22:00,
2013-02-19 08:27:00,21.4,13.1,29.88,WNW,296,21.4,21.4,70,0.00,-SN,,0.01,WeatherDisplay:10.37,2013-02-19 14:27:00,
2013-02-19 08:32:00,21.4,12.1,29.88,West,271,26.0,26.0,67,0.00,-SN,,0.01,WeatherDisplay:10.37,2013-02-19 14:32:00,
2013-02-19 08:37:00,21.4,12.1,29.89,West,270,18.3,24.2,67,0.00,-SN,,0.01,WeatherDisplay:10.37,2013-02-19 14:37:00,
2013-02-19 08:42:00,21.4,12.8,29.89,WSW,257,19.0,24.0,69,0.00,-SN,,0.01,WeatherDisplay:10.37,2013-02-19 14:42:00,
2013-02-19 08:47:00,21.4,13.1,29.89,WSW,238,15.6,19.6,70,0.00,-SN,,0.01,WeatherDisplay:10.37,2013-02-19 14:47:00,
2013-02-19 08:52:00,21.6,13.6,29.89,SSW,210,14.1,24.2,71,0.00,-SN,,0.01,WeatherDisplay:10.37,2013-02-19 14:52:00,
2013-02-19 08:57:00,21.6,13.6,29.89,SW,231,23.8,31.1,71,0.00,-SN,,0.01,WeatherDisplay:10.37,2013-02-19 14:57:00,
2013-02-19 09:02:00,21.6,13.6,29.89,WSW,255,18.2,19.6,71,0.00,-SN,,0.01,WeatherDisplay:10.37,2013-02-19 15:02:00,
2013-02-19 09:07:00,21.6,13.6,29.89,West,267,13.3,23.0,71,0.00,-SN,,0.01,WeatherDisplay:10.37,2013-02-19 15:07:00,
2013-02-19 09:12:00,21.6,14.0,29.90,West,261,16.0,20.7,72,0.00,-SN,,0.01,WeatherDisplay:10.37,2013-02-19 15:12:00,
2013-02-19 09:17:00,21.4,14.1,29.90,WSW,243,22.4,31.5,73,0.00,-SN,,0.01,WeatherDisplay:10.37,2013-02-19 15:17:00,
2013-02-19 09:22:00,21.1,13.8,29.90,West,280,19.1,28.8,73,0.00,-SN,,0.01,WeatherDisplay:10.37,2013-02-19 15:22:00,
2013-02-19 09:27:00,21.0,14.0,29.90,West,267,16.0,28.8,74,0.00,-SN,,0.01,WeatherDisplay:10.37,2013-02-19 15:27:00,
2013-02-19 09:32:00,20.8,13.2,29.90,WSW,252,24.9,24.9,72,0.00,-SN,,0.01,WeatherDisplay:10.37,2013-02-19 15:32:00,
2013-02-19 09:37:00,20.5,12.3,29.91,West,271,19.9,25.3,70,0.00,-SN,,0.01,WeatherDisplay:10.37,2013-02-19 15:37:00,
2013-02-19 09:42:00,20.5,12.3,29.92,West,267,11.5,18.4,70,0.00,-SN,,0.01,WeatherDisplay:10.37,2013-02-19 15:42:00,
2013-02-19 09:47:00,21.0,12.4,29.92,WNW,298,24.9,24.9,69,0.00,-SN,,0.01,WeatherDisplay:10.37,2013-02-19 15:47:00,
2013-02-19 09:52:00,21.0,12.1,29.92,WSW,248,24.4,29.9,68,0.00,-SN,,0.01,WeatherDisplay:10.37,2013-02-19 15:52:00,
2013-02-19 09:57:00,20.6,12.0,29.92,West,279,16.6,20.7,69,0.00,-SN,,0.01,WeatherDisplay:10.37,2013-02-19 15:57:00,
2013-02-19 10:02:00,20.3,11.4,29.93,SW,216,25.1,28.8,68,0.00,-SN,,0.01,WeatherDisplay:10.37,2013-02-19 16:02:00,
2013-02-19 10:07:00,20.3,11.4,29.93,SW,215,24.4,38.0,68,0.00,-SN,,0.01,WeatherDisplay:10.37,2013-02-19 16:07:00,
2013-02-19 10:12:00,20.5,11.9,29.93,West,266,23.1,25.3,69,0.00,OVC,,0.01,WeatherDisplay:10.37,2013-02-19 16:12:00,
2013-02-19 10:17:00,20.3,11.7,29.93,West,275,24.3,34.5,69,0.00,OVC,,0.01,WeatherDisplay:10.37,2013-02-19 16:17:00,
2013-02-19 10:22:00,20.3,12.1,29.93,SW,219,23.7,29.9,70,0.00,OVC,,0.01,WeatherDisplay:10.37,2013-02-19 16:22:00,
2013-02-19 10:27:00,20.3,11.7,29.94,West,281,8.6,24.2,69,0.00,OVC,,0.01,WeatherDisplay:10.37,2013-02-19 16:27:00,
2013-02-19 10:32:00,20.5,11.9,29.94,WSW,253,11.8,24.2,69,0.00,-SN,,0.01,WeatherDisplay:10.37,2013-02-19 16:32:00,
2013-02-19 10:37:00,20.8,12.9,29.94,WSW,238,8.3,8.3,71,0.00,-SN,,0.01,WeatherDisplay:10.37,2013-02-19 16:37:00,
2013-02-19 10:42:00,21.0,12.7,29.95,SW,234,19.1,19.1,70,0.00,-SN,,0.01,WeatherDisplay:10.37,2013-02-19 16:42:00,
2013-02-19 10:47:00,20.8,12.9,29.95,West,280,16.0,24.2,71,0.00,-SN,,0.01,WeatherDisplay:10.37,2013-02-19 16:47:00,
2013-02-19 10:52:00,21.0,13.7,29.95,SW,234,5.9,10.5,73,0.00,-SN,,0.01,WeatherDisplay:10.37,2013-02-19 16:52:00,
2013-02-19 10:57:00,21.0,13.1,29.95,WSW,244,14.0,23.0,71,0.00,-SN,,0.01,WeatherDisplay:10.37,2013-02-19 16:57:00,
2013-02-19 11:02:00,21.1,12.8,29.96,West,273,8.1,16.1,70,0.00,-SN,,0.01,WeatherDisplay:10.37,2013-02-19 17:02:00,
2013-02-19 11:07:00,21.3,13.0,29.96,South,169,7.5,18.4,70,0.00,-SN,,0.01,WeatherDisplay:10.37,2013-02-19 17:07:00,
2013-02-19 11:12:00,21.3,12.7,29.96,WSW,242,8.3,19.6,69,0.00,-SN,,0.01,WeatherDisplay:10.37,2013-02-19 17:12:00,
2013-02-19 11:17:00,21.3,11.7,29.97,SW,234,19.6,31.1,66,0.00,-SN,,0.01,WeatherDisplay:10.37,2013-02-19 17:17:00,
2013-02-19 11:22:00,21.1,11.8,29.97,WSW,248,13.5,15.0,67,0.00,-SN,,0.01,WeatherDisplay:10.37,2013-02-19 17:22:00,
2013-02-19 11:27:00,21.0,12.1,29.97,West,267,24.2,24.2,68,0.00,-SN,,0.01,WeatherDisplay:10.37,2013-02-19 17:27:00,
2013-02-19 11:32:00,20.3,13.3,29.97,SW,220,11.7,23.0,74,0.00,-SN,,0.01,WeatherDisplay:10.37,2013-02-19 17:32:00,
2013-02-19 11:37:00,20.0,13.6,29.97,WSW,238,20.7,20.7,76,0.00,-SN,,0.01,WeatherDisplay:10.37,2013-02-19 17:37:00,
2013-02-19 11:42:00,19.4,12.2,29.97,WSW,253,22.2,24.2,73,0.00,-SN,,0.01,WeatherDisplay:10.37,2013-02-19 17:42:00,
2013-02-19 11:48:00,19.4,11.5,29.97,West,263,18.0,29.9,71,0.00,-SN,,0.01,WeatherDisplay:10.37,2013-02-19 17:48:00,
2013-02-19 11:53:00,19.9,12.0,29.97,West,265,12.1,15.0,71,0.00,-SN,,0.01,WeatherDisplay:10.37,2013-02-19 17:53:00,
2013-02-19 11:58:00,20.0,11.8,29.97,WSW,239,14.8,19.6,70,0.00,-SN,,0.01,WeatherDisplay:10.37,2013-02-19 17:58:00,
2013-02-19 12:03:00,20.2,12.3,29.97,WNW,288,14.9,16.1,71,0.00,-SN,,0.01,WeatherDisplay:10.37,2013-02-19 18:03:00,
2013-02-19 12:08:00,19.9,11.4,29.98,WSW,240,25.6,33.4,69,0.00,-SN,,0.01,WeatherDisplay:10.37,2013-02-19 18:08:00,
2013-02-19 12:13:00,19.9,11.4,29.98,WSW,247,21.9,23.0,69,0.00,-SN,,0.01,WeatherDisplay:10.37,2013-02-19 18:13:00,
2013-02-19 12:18:00,20.2,11.7,29.98,SW,222,16.0,23.0,69,0.00,-SN,,0.01,WeatherDisplay:10.37,2013-02-19 18:18:00,
2013-02-19 12:23:00,20.2,11.3,29.98,West,262,22.1,26.5,68,0.00,-SN,,0.01,WeatherDisplay:10.37,2013-02-19 18:23:00,
2013-02-19 12:28:00,20.3,11.7,29.98,West,267,23.0,24.2,69,0.00,-SN,,0.01,WeatherDisplay:10.37,2013-02-19 18:28:00,
2013-02-19 12:33:00,20.5,11.9,29.98,WSW,251,17.3,23.0,69,0.00,-SN,,0.01,WeatherDisplay:10.37,2013-02-19 18:33:00,
2013-02-19 12:38:00,20.5,11.9,29.97,West,259,16.1,18.4,69,0.00,-SN,,0.01,WeatherDisplay:10.37,2013-02-19 18:38:00,
2013-02-19 12:43:00,20.8,12.6,29.98,West,277,17.7,29.9,70,0.00,-SN,,0.01,WeatherDisplay:10.37,2013-02-19 18:43:00,
2013-02-19 12:48:00,21.0,12.4,29.98,West,279,14.8,18.4,69,0.00,-SN,,0.01,WeatherDisplay:10.37,2013-02-19 18:48:00,
2013-02-19 12:53:00,20.8,11.9,29.98,WSW,250,26.1,33.4,68,0.00,-SN,,0.01,WeatherDisplay:10.37,2013-02-19 18:53:00,
2013-02-19 12:58:00,20.8,11.6,29.98,West,278,16.7,23.0,67,0.00,-SN,,0.01,WeatherDisplay:10.37,2013-02-19 18:58:00,
2013-02-19 13:03:00,21.1,12.2,29.98,West,274,15.6,23.0,68,0.00,-SN,,0.01,WeatherDisplay:10.37,2013-02-19 19:03:00,
2013-02-19 13:08:00,21.0,12.4,29.98,WNW,286,30.2,33.4,69,0.00,-SN,,0.01,WeatherDisplay:10.37,2013-02-19 19:08:00,
2013-02-19 13:13:00,21.0,12.4,29.98,SW,231,22.5,28.5,69,0.00,-SN,,0.01,WeatherDisplay:10.37,2013-02-19 19:13:00,
2013-02-19 13:18:00,20.8,12.6,29.99,West,266,13.3,20.7,70,0.00,-SN,,0.01,WeatherDisplay:10.37,2013-02-19 19:18:00,
2013-02-19 13:23:00,20.6,12.0,29.99,West,281,19.9,26.5,69,0.00,-SN,,0.01,WeatherDisplay:10.37,2013-02-19 19:23:00,
2013-02-19 13:28:00,20.6,11.7,29.99,WNW,285,12.5,19.5,68,0.00,-SN,,0.01,WeatherDisplay:10.37,2013-02-19 19:28:00,
2013-02-19 13:33:00,20.5,11.3,29.99,WSW,238,29.7,33.4,67,0.00,-SN,,0.01,WeatherDisplay:10.37,2013-02-19 19:33:00,
2013-02-19 13:38:00,20.8,11.6,29.99,WNW,293,18.3,20.7,67,0.00,-SN,,0.01,WeatherDisplay:10.37,2013-02-19 19:38:00,
2013-02-19 13:43:00,21.1,11.8,29.99,SW,214,20.3,25.3,67,0.00,-SN,,0.01,WeatherDisplay:10.37,2013-02-19 19:43:00,
2013-02-19 13:48:00,21.4,12.1,29.99,West,280,17.1,20.7,67,0.00,-SN,,0.01,WeatherDisplay:10.37,2013-02-19 19:48:00,
2013-02-19 13:53:00,21.3,11.7,29.99,WSW,250,23.6,31.5,66,0.00,-SN,,0.01,WeatherDisplay:10.37,2013-02-19 19:53:00,
2013-02-19 13:58:00,21.4,11.8,29.99,NNW,328,22.7,25.3,66,0.00,-SN,,0.01,WeatherDisplay:10.37,2013-02-19 19:58:00,
2013-02-19 14:03:00,21.6,12.0,30.00,West,267,9.5,25.3,66,0.00,-SN,,0.01,WeatherDisplay:10.37,2013-02-19 20:03:00,
2013-02-19 14:08:00,21.6,11.6,30.01,West,267,28.7,29.9,65,0.00,-SN,,0.01,WeatherDisplay:10.37,2013-02-19 20:08:00,
2013-02-19 14:13:00,21.4,11.1,30.01,West,261,29.2,29.2,64,0.00,-SN,,0.01,WeatherDisplay:10.37,2013-02-19 20:13:00,
2013-02-19 14:18:00,21.4,11.5,30.01,WSW,241,20.6,23.0,65,0.00,-SN,,0.01,WeatherDisplay:10.37,2013-02-19 20:18:00,
2013-02-19 14:23:00,21.6,11.6,30.01,WSW,242,19.5,23.0,65,0.00,-SN,,0.01,WeatherDisplay:10.37,2013-02-19 20:23:00,
2013-02-19 14:28:00,21.8,11.8,30.02,West,280,31.0,31.0,65,0.00,-SN,,0.01,WeatherDisplay:10.37,2013-02-19 20:28:00,
2013-02-19 14:33:00,21.9,11.9,30.02,WSW,257,23.3,24.2,65,0.00,-SN,,0.01,WeatherDisplay:10.37,2013-02-19 20:33:00,
2013-02-19 14:38:00,22.1,12.1,30.02,West,281,16.1,28.8,65,0.00,-SN,,0.01,WeatherDisplay:10.37,2013-02-19 20:38:00,
2013-02-19 14:43:00,22.4,12.1,30.02,WNW,286,16.8,23.0,64,0.00,-SN,,0.01,WeatherDisplay:10.37,2013-02-19 20:43:00,
2013-02-19 14:48:00,22.2,11.9,30.02,WSW,257,23.6,26.5,64,0.00,-SN,,0.01,WeatherDisplay:10.37,2013-02-19 20:48:00,
2013-02-19 14:53:00,22.4,12.4,30.02,WSW,254,16.4,19.6,65,0.00,-SN,,0.01,WeatherDisplay:10.37,2013-02-19 20:53:00,
2013-02-19 14:58:00,22.5,11.8,30.02,WSW,247,16.3,26.5,63,0.00,-SN,,0.01,WeatherDisplay:10.37,2013-02-19 20:58:00,
2013-02-19 15:03:00,22.5,11.8,30.02,West,279,20.9,31.1,63,0.00,-SN,,0.01,WeatherDisplay:10.37,2013-02-19 21:03:00,
2013-02-19 15:08:00,22.5,11.8,30.03,SW,229,17.0,29.9,63,0.00,-SN,,0.01,WeatherDisplay:10.37,2013-02-19 21:08:00,
2013-02-19 15:13:00,22.5,11.8,30.04,WNW,302,21.8,23.0,63,0.00,OVC,,0.01,WeatherDisplay:10.37,2013-02-19 21:13:00,
2013-02-19 15:18:00,22.4,11.7,30.04,West,274,27.6,27.6,63,0.00,OVC,,0.01,WeatherDisplay:10.37,2013-02-19 21:18:00,
2013-02-19 15:23:00,22.5,11.8,30.04,West,273,14.3,23.0,63,0.00,OVC,,0.01,WeatherDisplay:10.37,2013-02-19 21:23:00,
2013-02-19 15:28:00,22.5,11.1,30.04,West,274,23.3,38.0,61,0.00,OVC,,0.01,WeatherDisplay:10.37,2013-02-19 21:28:00,
2013-02-19 15:33:00,22.5,11.4,30.05,SW,234,26.0,26.5,62,0.00,OVC,,0.01,WeatherDisplay:10.37,2013-02-19 21:33:00,
2013-02-19 15:38:00,22.7,11.6,30.05,WSW,249,16.5,24.2,62,0.00,OVC,,0.01,WeatherDisplay:10.37,2013-02-19 21:38:00,
2013-02-19 15:43:00,22.9,11.8,30.05,West,262,21.4,21.4,62,0.00,OVC,,0.01,WeatherDisplay:10.37,2013-02-19 21:43:00,
2013-02-19 15:48:00,23.0,11.9,30.06,SW,234,17.9,24.2,62,0.00,OVC,,0.01,WeatherDisplay:10.37,2013-02-19 21:48:00,
2013-02-19 15:53:00,23.0,12.3,30.06,WNW,290,9.7,20.7,63,0.00,OVC,,0.01,WeatherDisplay:10.37,2013-02-19 21:53:00,
2013-02-19 15:58:00,23.2,12.5,30.06,SW,225,26.9,26.9,63,0.00,OVC,,0.01,WeatherDisplay:10.37,2013-02-19 21:58:00,
2013-02-19 16:03:00,23.2,12.8,30.06,WNW,300,9.7,16.1,64,0.00,OVC,,0.01,WeatherDisplay:10.37,2013-02-19 22:03:00,
2013-02-19 16:08:00,23.2,12.8,30.07,West,259,20.1,27.0,64,0.00,OVC,,0.01,WeatherDisplay:10.37,2013-02-19 22:08:00,
2013-02-19 16:13:00,23.2,12.8,30.07,WSW,248,25.1,33.4,64,0.00,OVC,,0.01,WeatherDisplay:10.37,2013-02-19 22:13:00,
2013-02-19 16:18:00,23.3,12.2,30.07,WSW,241,18.6,23.0,62,0.00,OVC,,0.01,WeatherDisplay:10.37,2013-02-19 22:18:00,
2013-02-19 16:23:00,23.3,12.2,30.07,WSW,254,19.7,19.7,62,0.00,OVC,,0.01,WeatherDisplay:10.37,2013-02-19 22:23:00,
2013-02-19 16:28:00,23.3,12.2,30.08,WNW,293,24.5,26.5,62,0.00,OVC,,0.01,WeatherDisplay:10.37,2013-02-19 22:28:00,
2013-02-19 16:33:00,23.3,12.2,30.08,West,259,21.1,21.1,62,0.00,OVC,,0.01,WeatherDisplay:10.37,2013-02-19 22:33:00,
2013-02-19 16:38:00,23.3,12.2,30.08,SW,222,20.4,20.7,62,0.00,OVC,,0.01,WeatherDisplay:10.37,2013-02-19 22:38:00,
2013-02-19 16:43:00,23.3,11.8,30.08,West,263,9.6,20.7,61,0.00,OVC,,0.01,WeatherDisplay:10.37,2013-02-19 22:43:00,
2013-02-19 16:48:00,23.3,11.8,30.09,WSW,252,14.8,18.4,61,0.00,OVC,,0.01,WeatherDisplay:10.37,2013-02-19 22:48:00,
2013-02-19 16:53:00,23.3,12.2,30.08,WSW,241,20.0,20.0,62,0.00,OVC,,0.01,WeatherDisplay:10.37,2013-02-19 22:53:00,
2013-02-19 16:58:00,23.5,12.4,30.08,WSW,244,12.2,13.8,62,0.00,OVC,,0.01,WeatherDisplay:10.37,2013-02-19 22:58:00,
2013-02-19 17:03:00,23.5,12.4,30.09,SW,233,18.4,18.4,62,0.00,OVC,,0.01,WeatherDisplay:10.37,2013-02-19 23:03:00,
2013-02-19 17:09:00,23.5,12.4,30.09,WSW,246,22.8,35.7,62,0.00,OVC,,0.01,WeatherDisplay:10.37,2013-02-19 23:09:00,
2013-02-19 17:14:00,23.5,12.7,30.09,WSW,257,11.3,28.8,63,0.00,OVC,,0.01,WeatherDisplay:10.37,2013-02-19 23:14:00,
2013-02-19 17:19:00,23.5,13.1,30.09,WNW,288,11.4,13.8,64,0.00,OVC,,0.01,WeatherDisplay:10.37,2013-02-19 23:19:00,
2013-02-19 17:24:00,23.5,13.1,30.09,SW,225,15.9,24.2,64,0.00,OVC,,0.01,WeatherDisplay:10.37,2013-02-19 23:24:00,
2013-02-19 17:29:00,23.5,13.1,30.09,WSW,252,14.1,18.4,64,0.00,OVC,,0.01,WeatherDisplay:10.37,2013-02-19 23:29:00,
2013-02-19 17:34:00,23.5,13.1,30.10,SW,229,11.4,16.1,64,0.00,OVC,,0.01,WeatherDisplay:10.37,2013-02-19 23:34:00,
2013-02-19 17:39:00,23.5,13.1,30.10,WSW,254,15.2,23.0,64,0.00,OVC,,0.01,WeatherDisplay:10.37,2013-02-19 23:39:00,
2013-02-19 17:44:00,23.3,12.6,30.10,West,269,19.9,31.1,63,0.00,OVC,,0.01,WeatherDisplay:10.37,2013-02-19 23:44:00,
2013-02-19 17:49:00,23.5,12.4,30.10,NW,304,11.2,15.0,62,0.00,OVC,,0.01,WeatherDisplay:10.37,2013-02-19 23:49:00,
2013-02-19 17:54:00,23.5,12.4,30.10,West,265,9.6,13.8,62,0.00,OVC,,0.01,WeatherDisplay:10.37,2013-02-19 23:54:00,
2013-02-19 17:59:00,23.5,12.0,30.10,WSW,245,16.7,24.2,61,0.00,OVC,,0.01,WeatherDisplay:10.37,2013-02-19 23:59:00,
2013-02-19 18:04:00,23.5,12.0,30.11,West,263,15.8,24.0,61,0.00,OVC,,0.01,WeatherDisplay:10.37,2013-02-20 00:04:00,
2013-02-19 18:09:00,23.5,12.4,30.11,West,269,20.0,25.3,62,0.00,OVC,,0.01,WeatherDisplay:10.37,2013-02-20 00:09:00,
2013-02-19 18:14:00,23.5,12.4,30.11,West,272,16.2,24.2,62,0.00,OVC,,0.01,WeatherDisplay:10.37,2013-02-20 00:14:00,
2013-02-19 18:19:00,23.5,12.7,30.11,WSW,249,15.0,28.8,63,0.00,OVC,,0.01,WeatherDisplay:10.37,2013-02-20 00:19:00,
2013-02-19 18:24:00,23.3,12.2,30.11,WSW,243,16.1,19.6,62,0.00,OVC,,0.01,WeatherDisplay:10.37,2013-02-20 00:24:00,
2013-02-19 18:29:00,23.3,12.6,30.11,WSW,238,20.3,24.2,63,0.00,OVC,,0.01,WeatherDisplay:10.37,2013-02-20 00:29:00,
2013-02-19 18:34:00,23.2,12.1,30.11,WSW,257,19.9,23.0,62,0.00,OVC,,0.01,WeatherDisplay:10.37,2013-02-20 00:34:00,
2013-02-19 18:39:00,23.2,12.5,30.12,West,281,6.8,10.4,63,0.00,OVC,,0.01,WeatherDisplay:10.37,2013-02-20 00:39:00,
2013-02-19 18:44:00,23.0,12.6,30.12,WNW,296,5.4,16.1,64,0.00,OVC,,0.01,WeatherDisplay:10.37,2013-02-20 00:44:00,
2013-02-19 18:49:00,22.9,12.2,30.12,SSW,209,14.2,15.0,63,0.00,OVC,,0.01,WeatherDisplay:10.37,2013-02-20 00:49:00,
2013-02-19 18:54:00,22.7,12.0,30.12,WSW,248,21.3,24.2,63,0.00,OVC,,0.01,WeatherDisplay:10.37,2013-02-20 00:54:00,
2013-02-19 18:59:00,22.5,11.8,30.12,WSW,242,8.4,11.5,63,0.00,OVC,,0.01,WeatherDisplay:10.37,2013-02-20 00:59:00,
2013-02-19 19:04:00,22.5,12.1,30.12,SSW,198,9.3,22.5,64,0.00,OVC,,0.01,WeatherDisplay:10.37,2013-02-20 01:04:00,
2013-02-19 19:09:00,22.4,12.1,30.12,West,272,13.8,18.4,64,0.00,OVC,,0.01,WeatherDisplay:10.37,2013-02-20 01:09:00,
2013-02-19 19:14:00,22.4,12.1,30.12,WSW,254,7.4,9.2,64,0.00,BKN,,0.01,WeatherDisplay:10.37,2013-02-20 01:14:00,
2013-02-19 19:19:00,22.2,12.2,30.12,West,267,15.3,19.6,65,0.00,BKN,,0.01,WeatherDisplay:10.37,2013-02-20 01:19:00,
2013-02-19 19:24:00,22.2,11.9,30.13,WSW,256,11.0,19.6,64,0.00,BKN,,0.01,WeatherDisplay:10.37,2013-02-20 01:24:00,
2013-02-19 19:29:00,22.1,11.8,30.13,WNW,290,6.2,13.5,64,0.00,BKN,,0.01,WeatherDisplay:10.37,2013-02-20 01:29:00,
2013-02-19 19:34:00,21.9,11.6,30.13,SSW,205,17.3,25.3,64,0.00,SCT,,0.01,WeatherDisplay:10.37,2013-02-20 01:34:00,
2013-02-19 19:39:00,21.9,11.6,30.12,WSW,251,9.9,10.4,64,0.00,SCT,,0.01,WeatherDisplay:10.37,2013-02-20 01:39:00,
2013-02-19 19:44:00,21.8,11.8,30.13,West,267,12.1,13.8,65,0.00,SCT,,0.01,WeatherDisplay:10.37,2013-02-20 01:44:00,
2013-02-19 19:49:00,21.6,11.6,30.13,West,266,12.3,20.7,65,0.00,SCT,,0.01,WeatherDisplay:10.37,2013-02-20 01:49:00,
2013-02-19 19:54:00,21.6,11.6,30.12,WSW,238,10.7,11.5,65,0.00,CLR,,0.01,WeatherDisplay:10.37,2013-02-20 01:54:00,
2013-02-19 19:59:00,21.4,11.5,30.12,SW,236,12.5,23.0,65,0.00,CLR,,0.01,WeatherDisplay:10.37,2013-02-20 01:59:00,
2013-02-19 20:04:00,21.4,11.1,30.13,WNW,282,10.7,10.7,64,0.00,CLR,,0.01,WeatherDisplay:10.37,2013-02-20 02:04:00,
2013-02-19 20:09:00,21.4,11.1,30.13,WSW,238,12.2,15.0,64,0.00,CLR,,0.01,WeatherDisplay:10.37,2013-02-20 02:09:00,
2013-02-19 20:14:00,21.4,11.5,30.13,West,277,15.2,20.7,65,0.00,CLR,,0.01,WeatherDisplay:10.37,2013-02-20 02:14:00,
2013-02-19 20:19:00,21.3,11.4,30.13,West,259,10.1,16.1,65,0.00,CLR,,0.01,WeatherDisplay:10.37,2013-02-20 02:19:00,
2013-02-19 20:24:00,21.3,11.4,30.13,SW,219,13.7,13.7,65,0.00,CLR,,0.01,WeatherDisplay:10.37,2013-02-20 02:24:00,
2013-02-19 20:29:00,21.1,11.2,30.13,WSW,241,8.5,13.8,65,0.00,CLR,,0.01,WeatherDisplay:10.37,2013-02-20 02:29:00,
2013-02-19 20:34:00,21.1,11.2,30.13,West,264,15.2,20.7,65,0.00,CLR,,0.01,WeatherDisplay:10.37,2013-02-20 02:34:00,
2013-02-19 20:39:00,21.1,11.2,30.14,WSW,248,15.2,18.0,65,0.00,CLR,,0.01,WeatherDisplay:10.37,2013-02-20 02:39:00,
2013-02-19 20:44:00,21.1,11.2,30.14,West,275,14.5,19.6,65,0.00,CLR,,0.01,WeatherDisplay:10.37,2013-02-20 02:44:00,
2013-02-19 20:49:00,21.1,10.8,30.14,WNW,285,11.7,18.4,64,0.00,CLR,,0.01,WeatherDisplay:10.37,2013-02-20 02:49:00,
2013-02-19 20:54:00,21.1,10.8,30.14,WSW,240,11.0,13.5,64,0.00,CLR,,0.01,WeatherDisplay:10.37,2013-02-20 02:54:00,
2013-02-19 20:59:00,21.1,10.8,30.14,WSW,246,16.5,19.6,64,0.00,CLR,,0.01,WeatherDisplay:10.37,2013-02-20 02:59:00,
2013-02-19 21:04:00,21.0,10.7,30.15,SW,232,9.8,10.4,64,0.00,CLR,,0.01,WeatherDisplay:10.37,2013-02-20 03:04:00,
2013-02-19 21:09:00,21.0,10.7,30.15,West,265,13.5,13.8,64,0.00,CLR,,0.01,WeatherDisplay:10.37,2013-02-20 03:09:00,
2013-02-19 21:14:00,20.8,10.5,30.15,WSW,254,13.8,15.0,64,0.00,CLR,,0.01,WeatherDisplay:10.37,2013-02-20 03:14:00,
2013-02-19 21:19:00,20.8,10.5,30.15,West,265,10.2,10.2,64,0.00,CLR,,0.01,WeatherDisplay:10.37,2013-02-20 03:19:00,
2013-02-19 21:24:00,20.8,10.5,30.15,West,268,12.6,18.4,64,0.00,CLR,,0.01,WeatherDisplay:10.37,2013-02-20 03:24:00,
2013-02-19 21:29:00,20.8,10.5,30.15,West,266,5.8,8.1,64,0.00,CLR,,0.01,WeatherDisplay:10.37,2013-02-20 03:29:00,
2013-02-19 21:34:00,20.6,10.3,30.15,WSW,253,8.0,16.1,64,0.00,CLR,,0.01,WeatherDisplay:10.37,2013-02-20 03:34:00,
2013-02-19 21:39:00,20.6,10.3,30.15,WSW,252,13.4,15.0,64,0.00,CLR,,0.01,WeatherDisplay:10.37,2013-02-20 03:39:00,
2013-02-19 21:44:00,20.6,10.3,30.15,West,266,7.6,9.2,64,0.00,CLR,,0.01,WeatherDisplay:10.37,2013-02-20 03:44:00,
2013-02-19 21:49:00,20.6,10.3,30.16,West,273,12.6,12.6,64,0.00,CLR,,0.01,WeatherDisplay:10.37,2013-02-20 03:49:00,
2013-02-19 21:54:00,20.6,10.7,30.16,West,269,14.4,18.4,65,0.00,CLR,,0.01,WeatherDisplay:10.37,2013-02-20 03:54:00,
2013-02-19 21:59:00,20.5,10.6,30.16,WNW,299,5.7,8.1,65,0.00,CLR,,0.01,WeatherDisplay:10.37,2013-02-20 03:59:00,
2013-02-19 22:04:00,20.5,10.2,30.17,West,267,7.0,9.0,64,0.00,CLR,,0.01,WeatherDisplay:10.37,2013-02-20 04:04:00,
2013-02-19 22:09:00,20.3,9.7,30.17,West,281,5.4,9.2,63,0.00,CLR,,0.01,WeatherDisplay:10.37,2013-02-20 04:09:00,
2013-02-19 22:14:00,20.3,9.0,30.17,WNW,282,19.8,31.1,61,0.00,SCT,,0.01,WeatherDisplay:10.37,2013-02-20 04:14:00,
2013-02-19 22:19:00,20.2,8.9,30.17,WNW,284,16.1,19.6,61,0.00,SCT,,0.01,WeatherDisplay:10.37,2013-02-20 04:19:00,
2013-02-19 22:24:00,20.0,8.3,30.17,West,278,14.0,15.0,60,0.00,SCT,,0.01,WeatherDisplay:10.37,2013-02-20 04:24:00,
2013-02-19 22:29:00,19.9,8.6,30.17,West,278,8.6,9.2,61,0.00,SCT,,0.01,WeatherDisplay:10.37,2013-02-20 04:29:00,
2013-02-19 22:34:00,19.5,8.2,30.17,WNW,286,8.0,13.8,61,0.00,BKN,,0.01,WeatherDisplay:10.37,2013-02-20 04:34:00,
2013-02-19 22:39:00,19.4,7.8,30.17,West,279,15.5,15.5,60,0.00,BKN,,0.01,WeatherDisplay:10.37,2013-02-20 04:39:00,
2013-02-19 22:44:00,19.2,7.6,30.17,NW,311,16.5,19.6,60,0.00,BKN,,0.01,WeatherDisplay:10.37,2013-02-20 04:44:00,
2013-02-19 22:49:00,18.9,7.3,30.17,WSW,248,19.9,19.9,60,0.00,BKN,,0.01,WeatherDisplay:10.37,2013-02-20 04:49:00,
2013-02-19 22:54:00,18.9,7.3,30.18,WNW,284,8.7,10.5,60,0.00,SCT,,0.01,WeatherDisplay:10.37,2013-02-20 04:54:00,
2013-02-19 22:59:00,18.8,7.6,30.18,West,277,5.6,5.8,61,0.00,SCT,,0.01,WeatherDisplay:10.37,2013-02-20 04:59:00,
2013-02-19 23:00:00,18.8,7.6,30.18,WNW,282,6.0,9.0,61,0.00,SCT,,0.01,WeatherDisplay:10.37,2013-02-20 05:00:00,
2013-02-19 23:05:00,18.6,7.4,30.18,West,277,14.2,16.1,61,0.00,SCT,,0.01,WeatherDisplay:10.37,2013-02-20 05:05:00,
2013-02-19 23:10:00,18.4,7.5,30.19,WNW,292,10.0,19.5,62,0.00,SCT,,0.01,WeatherDisplay:10.37,2013-02-20 05:10:00,
2013-02-19 23:15:00,18.3,7.4,30.19,WNW,296,9.6,18.4,62,0.00,SCT,,0.01,WeatherDisplay:10.37,2013-02-20 05:15:00,
2013-02-19 23:20:00,18.1,7.3,30.19,West,276,9.2,9.2,62,0.00,SCT,,0.01,WeatherDisplay:10.37,2013-02-20 05:20:00,
2013-02-19 23:25:00,18.0,7.2,30.19,West,268,10.5,19.6,62,0.00,SCT,,0.01,WeatherDisplay:10.37,2013-02-20 05:25:00,
2013-02-19 23:30:00,18.0,7.2,30.19,WSW,255,10.5,13.8,62,0.00,SCT,,0.01,WeatherDisplay:10.37,2013-02-20 05:30:00,
2013-02-19 23:35:00,17.8,7.0,30.19,West,280,14.6,15.0,62,0.00,SCT,,0.01,WeatherDisplay:10.37,2013-02-20 05:35:00,
2013-02-19 23:40:00,17.8,7.3,30.19,NNW,348,7.0,15.0,63,0.00,SCT,,0.01,WeatherDisplay:10.37,2013-02-20 05:40:00,
2013-02-19 23:45:00,17.7,7.2,30.19,West,278,8.5,9.2,63,0.00,SCT,,0.01,WeatherDisplay:10.37,2013-02-20 05:45:00,
2013-02-19 23:50:00,17.7,7.6,30.20,West,279,4.8,10.5,64,0.00,SCT,,0.01,WeatherDisplay:10.37,2013-02-20 05:50:00,
2013-02-19 23:55:00,17.5,7.4,30.20,WSW,242,8.1,19.6,64,0.00,-SN,,0.01,WeatherDisplay:10.37,2013-02-20 05:55:00,